Aliki Perrotis — 3FZY6 — position and weather

sailwx.info

Track history (hours):
 
Tides and Currents Weather Stations Pressure Air Temp Water Temp Dewpoint Dewpoint Depression Visibility Wind Speed Wind Dir Waves Ship Positions

Aliki Perrotis

Last reported at 2018-May-09 16:45 UTC. Time now 2018-May-24 11:45 UTC.
Position N 28°25' W 013°22'.
Warning: this ship's position is 14 days out of date.

Length 198 m; draft 9.3 m.

Type: Cargo ship. MMSI: 354720000.

Date/timePositionNaut miles runAvg speedWind from/ knotsBaromVisibWave heightAir tempDewpointWater temp
2018-May-09 16:45N 28°25' W 013°22'312.9
2018-May-09 16:29N 28°28' W 013°20'812.8
2018-May-09 15:52N 28°34' W 013°15'512.7
2018-May-09 15:29N 28°38' W 013°11'712.7
2018-May-09 14:56N 28°44' W 013°06'812.5
2018-May-09 14:15N 28°51' W 013°01'412.4
2018-May-09 13:54N 28°54' W 012°58'56612.3
2018-May-07 15:48N 35°58' W 005°33'310.7
2018-May-07 15:30N 35°59' W 005°30'510.4
2018-May-07 15:00N 36°02' W 005°24'5 9.9
2018-May-07 14:30N 36°07' W 005°22'1 1.2
2018-May-07 13:57N 36°07' W 005°22'0 0.1
2018-May-07 13:18N 36°07' W 005°22'0 0.1
2018-May-07 11:21N 36°07' W 005°22'0 0.0
2018-May-07 10:57N 36°07' W 005°22'0 0.0
2018-May-07 10:21N 36°07' W 005°22'0 0.0
2018-May-07 09:39N 36°07' W 005°21'0 0.0
2018-May-07 09:09N 36°07' W 005°21'0 0.1
2018-May-07 08:27N 36°07' W 005°21'0 0.1
2018-May-07 07:12N 36°07' W 005°22'0 0.2
2018-May-07 06:57N 36°07' W 005°22'1 1.4
2018-May-07 06:30N 36°07' W 005°22'2 3.1
2018-May-07 06:00N 36°05' W 005°21'2 4.9
2018-May-07 05:30N 36°06' W 005°18'3 5.9
2018-May-07 05:00N 36°07' W 005°15'3 5.8
2018-May-07 04:30N 36°08' W 005°12'  
2018-May-03 05:29N 36°42' E 013°37'3 6.8
2018-May-03 05:00N 36°41' E 013°41'3 6.9
2018-May-03 04:30N 36°40' E 013°45'4 7.2
2018-May-03 04:00N 36°38' E 013°49'4 7.8
2018-May-03 03:30N 36°37' E 013°54'4 7.2
2018-May-03 02:59N 36°36' E 013°58'4 7.4
2018-May-03 02:30N 36°34' E 014°02'4 7.9
2018-May-03 02:00N 36°33' E 014°07'4 8.0
2018-May-03 01:30N 36°32' E 014°11'4 8.2
2018-May-03 01:00N 36°30' E 014°16'4 8.0
2018-May-03 00:30N 36°29' E 014°21'4 8.5
2018-May-03 00:00N 36°27' E 014°26'4 8.7
2018-May-02 23:30N 36°26' E 014°31'4 8.9
2018-May-02 23:00N 36°25' E 014°36'5 9.4
2018-May-02 22:30N 36°23' E 014°41'510.1
2018-May-02 22:00N 36°21' E 014°47'  
2018-Apr-30 09:44N 31°13' E 029°48'2 8.0
2018-Apr-30 09:30N 31°11' E 029°48'2 2.6
2018-Apr-30 08:32N 31°09' E 029°48'  
Track history (hours):
 
Tides and Currents Weather Stations Pressure Air Temp Water Temp Dewpoint Dewpoint Depression Visibility Wind Speed Wind Dir Waves Ship Positions

Aliki Perrotis

Last reported at 2018-May-09 16:45 UTC. Time now 2018-May-24 11:45 UTC.
Position N 28°25' W 013°22'.
Warning: this ship's position is 14 days out of date.

Length 198 m; draft 9.3 m.

Type: Cargo ship. MMSI: 354720000.

Date/timePositionNaut miles runAvg speedWind from/ knotsBaromVisibWave heightAir tempDewpointWater temp
2018-May-09 16:45N 28°25' W 013°22'312.9
2018-May-09 16:29N 28°28' W 013°20'812.8
2018-May-09 15:52N 28°34' W 013°15'512.7
2018-May-09 15:29N 28°38' W 013°11'712.7
2018-May-09 14:56N 28°44' W 013°06'812.5
2018-May-09 14:15N 28°51' W 013°01'412.4
2018-May-09 13:54N 28°54' W 012°58'56612.3
2018-May-07 15:48N 35°58' W 005°33'310.7
2018-May-07 15:30N 35°59' W 005°30'510.4
2018-May-07 15:00N 36°02' W 005°24'5 9.9
2018-May-07 14:30N 36°07' W 005°22'1 1.2
2018-May-07 13:57N 36°07' W 005°22'0 0.1
2018-May-07 13:18N 36°07' W 005°22'0 0.1
2018-May-07 11:21N 36°07' W 005°22'0 0.0
2018-May-07 10:57N 36°07' W 005°22'0 0.0
2018-May-07 10:21N 36°07' W 005°22'0 0.0
2018-May-07 09:39N 36°07' W 005°21'0 0.0
2018-May-07 09:09N 36°07' W 005°21'0 0.1
2018-May-07 08:27N 36°07' W 005°21'0 0.1
2018-May-07 07:12N 36°07' W 005°22'0 0.2
2018-May-07 06:57N 36°07' W 005°22'1 1.4
2018-May-07 06:30N 36°07' W 005°22'2 3.1
2018-May-07 06:00N 36°05' W 005°21'2 4.9
2018-May-07 05:30N 36°06' W 005°18'3 5.9
2018-May-07 05:00N 36°07' W 005°15'3 5.8
2018-May-07 04:30N 36°08' W 005°12'  
2018-May-03 05:29N 36°42' E 013°37'3 6.8
2018-May-03 05:00N 36°41' E 013°41'3 6.9
2018-May-03 04:30N 36°40' E 013°45'4 7.2
2018-May-03 04:00N 36°38' E 013°49'4 7.8
2018-May-03 03:30N 36°37' E 013°54'4 7.2
2018-May-03 02:59N 36°36' E 013°58'4 7.4
2018-May-03 02:30N 36°34' E 014°02'4 7.9
2018-May-03 02:00N 36°33' E 014°07'4 8.0
2018-May-03 01:30N 36°32' E 014°11'4 8.2
2018-May-03 01:00N 36°30' E 014°16'4 8.0
2018-May-03 00:30N 36°29' E 014°21'4 8.5
2018-May-03 00:00N 36°27' E 014°26'4 8.7
2018-May-02 23:30N 36°26' E 014°31'4 8.9
2018-May-02 23:00N 36°25' E 014°36'5 9.4
2018-May-02 22:30N 36°23' E 014°41'510.1
2018-May-02 22:00N 36°21' E 014°47'  
2018-Apr-30 09:44N 31°13' E 029°48'2 8.0
2018-Apr-30 09:30N 31°11' E 029°48'2 2.6
2018-Apr-30 08:32N 31°09' E 029°48'  

Dump ship's entire track history